sensor_id;sensor_type;location;lat;lon;timestamp;temperature;humidity
15099;DHT22;33900;53.640;9.942;2022-07-19T00:00:53;20.50;86.30
15099;DHT22;33900;53.640;9.942;2022-07-19T00:03:21;20.50;86.20
15099;DHT22;33900;53.640;9.942;2022-07-19T00:05:48;20.50;86.30
15099;DHT22;33900;53.640;9.942;2022-07-19T00:08:14;20.50;86.50
15099;DHT22;33900;53.640;9.942;2022-07-19T00:10:39;20.50;86.30
15099;DHT22;33900;53.640;9.942;2022-07-19T00:13:05;20.40;86.30
15099;DHT22;33900;53.640;9.942;2022-07-19T00:15:33;20.40;86.40
15099;DHT22;33900;53.640;9.942;2022-07-19T00:17:58;20.40;86.40
15099;DHT22;33900;53.640;9.942;2022-07-19T00:20:24;20.40;86.50
15099;DHT22;33900;53.640;9.942;2022-07-19T00:22:50;20.40;86.50
15099;DHT22;33900;53.640;9.942;2022-07-19T00:25:18;20.40;86.70
15099;DHT22;33900;53.640;9.942;2022-07-19T00:27:43;20.30;86.90
15099;DHT22;33900;53.640;9.942;2022-07-19T00:30:09;20.30;86.80
15099;DHT22;33900;53.640;9.942;2022-07-19T00:32:37;20.30;87.00
15099;DHT22;33900;53.640;9.942;2022-07-19T00:35:03;20.20;86.90
15099;DHT22;33900;53.640;9.942;2022-07-19T00:37:29;20.20;87.10
15099;DHT22;33900;53.640;9.942;2022-07-19T00:39:56;20.30;87.30
15099;DHT22;33900;53.640;9.942;2022-07-19T00:42:22;20.20;87.00
15099;DHT22;33900;53.640;9.942;2022-07-19T00:44:47;20.20;87.00
15099;DHT22;33900;53.640;9.942;2022-07-19T00:47:13;20.20;87.20
15099;DHT22;33900;53.640;9.942;2022-07-19T00:49:39;20.10;87.20
15099;DHT22;33900;53.640;9.942;2022-07-19T00:52:04;20.10;87.30
15099;DHT22;33900;53.640;9.942;2022-07-19T00:54:32;20.10;87.40
15099;DHT22;33900;53.640;9.942;2022-07-19T00:56:58;20.00;87.20
15099;DHT22;33900;53.640;9.942;2022-07-19T00:59:25;20.00;87.30
15099;DHT22;33900;53.640;9.942;2022-07-19T01:01:53;20.00;87.30
15099;DHT22;33900;53.640;9.942;2022-07-19T01:04:21;20.00;87.40
15099;DHT22;33900;53.640;9.942;2022-07-19T01:06:46;19.90;87.40
15099;DHT22;33900;53.640;9.942;2022-07-19T01:09:12;19.90;87.40
15099;DHT22;33900;53.640;9.942;2022-07-19T01:11:38;19.90;87.70
15099;DHT22;33900;53.640;9.942;2022-07-19T01:14:04;19.90;87.70
15099;DHT22;33900;53.640;9.942;2022-07-19T01:16:29;19.80;87.70
15099;DHT22;33900;53.640;9.942;2022-07-19T01:18:56;19.80;87.70
15099;DHT22;33900;53.640;9.942;2022-07-19T01:21:22;19.80;87.70
15099;DHT22;33900;53.640;9.942;2022-07-19T01:23:48;19.80;88.00
15099;DHT22;33900;53.640;9.942;2022-07-19T01:26:14;19.70;87.80
15099;DHT22;33900;53.640;9.942;2022-07-19T01:28:40;19.70;88.00
15099;DHT22;33900;53.640;9.942;2022-07-19T01:31:07;19.70;88.00
15099;DHT22;33900;53.640;9.942;2022-07-19T01:33:37;19.70;88.10
15099;DHT22;33900;53.640;9.942;2022-07-19T01:36:02;19.70;88.00
15099;DHT22;33900;53.640;9.942;2022-07-19T01:38:28;19.60;88.10
15099;DHT22;33900;53.640;9.942;2022-07-19T01:40:53;19.60;88.30
15099;DHT22;33900;53.640;9.942;2022-07-19T01:43:19;19.60;88.40
15099;DHT22;33900;53.640;9.942;2022-07-19T01:45:45;19.60;88.30
15099;DHT22;33900;53.640;9.942;2022-07-19T01:48:10;19.60;88.40
15099;DHT22;33900;53.640;9.942;2022-07-19T01:50:36;19.60;88.30
15099;DHT22;33900;53.640;9.942;2022-07-19T01:53:02;19.50;88.30
15099;DHT22;33900;53.640;9.942;2022-07-19T01:55:27;19.50;88.40
15099;DHT22;33900;53.640;9.942;2022-07-19T01:57:53;19.50;88.40
15099;DHT22;33900;53.640;9.942;2022-07-19T02:00:18;19.50;88.40
15099;DHT22;33900;53.640;9.942;2022-07-19T02:02:44;19.40;88.60
15099;DHT22;33900;53.640;9.942;2022-07-19T02:05:09;19.40;89.40
15099;DHT22;33900;53.640;9.942;2022-07-19T02:07:39;19.40;88.60
15099;DHT22;33900;53.640;9.942;2022-07-19T02:10:04;19.40;88.80
15099;DHT22;33900;53.640;9.942;2022-07-19T02:12:30;19.40;88.80
15099;DHT22;33900;53.640;9.942;2022-07-19T02:14:56;19.30;88.70
15099;DHT22;33900;53.640;9.942;2022-07-19T02:17:21;19.30;88.70
15099;DHT22;33900;53.640;9.942;2022-07-19T02:19:47;19.30;88.60
15099;DHT22;33900;53.640;9.942;2022-07-19T02:22:13;19.30;88.70
15099;DHT22;33900;53.640;9.942;2022-07-19T02:24:38;19.30;88.90
15099;DHT22;33900;53.640;9.942;2022-07-19T02:27:08;19.20;88.80
15099;DHT22;33900;53.640;9.942;2022-07-19T02:29:34;19.20;88.70
15099;DHT22;33900;53.640;9.942;2022-07-19T02:31:59;19.20;88.80
15099;DHT22;33900;53.640;9.942;2022-07-19T02:34:28;19.10;88.70
15099;DHT22;33900;53.640;9.942;2022-07-19T02:36:53;19.10;89.00
15099;DHT22;33900;53.640;9.942;2022-07-19T02:39:19;19.10;89.00
15099;DHT22;33900;53.640;9.942;2022-07-19T02:41:44;19.10;89.10
15099;DHT22;33900;53.640;9.942;2022-07-19T02:44:10;19.10;89.10
15099;DHT22;33900;53.640;9.942;2022-07-19T02:46:35;19.10;89.10
15099;DHT22;33900;53.640;9.942;2022-07-19T02:49:01;19.10;89.20
15099;DHT22;33900;53.640;9.942;2022-07-19T02:51:27;19.00;89.10
15099;DHT22;33900;53.640;9.942;2022-07-19T02:53:53;19.00;89.30
15099;DHT22;33900;53.640;9.942;2022-07-19T02:56:18;19.00;89.20
15099;DHT22;33900;53.640;9.942;2022-07-19T02:58:44;19.00;89.10
15099;DHT22;33900;53.640;9.942;2022-07-19T03:01:09;19.00;89.30
15099;DHT22;33900;53.640;9.942;2022-07-19T03:03:35;19.00;89.30
15099;DHT22;33900;53.640;9.942;2022-07-19T03:06:13;19.00;89.40
15099;DHT22;33900;53.640;9.942;2022-07-19T03:08:39;18.90;89.30
15099;DHT22;33900;53.640;9.942;2022-07-19T03:11:04;18.90;89.30
15099;DHT22;33900;53.640;9.942;2022-07-19T03:13:30;18.90;89.40
15099;DHT22;33900;53.640;9.942;2022-07-19T03:15:55;18.90;89.40
15099;DHT22;33900;53.640;9.942;2022-07-19T03:18:21;18.90;89.40
15099;DHT22;33900;53.640;9.942;2022-07-19T03:20:47;18.90;89.40
15099;DHT22;33900;53.640;9.942;2022-07-19T03:23:12;18.90;89.40
15099;DHT22;33900;53.640;9.942;2022-07-19T03:25:38;18.80;89.50
15099;DHT22;33900;53.640;9.942;2022-07-19T03:28:04;18.90;89.40
15099;DHT22;33900;53.640;9.942;2022-07-19T03:30:29;18.80;89.40
15099;DHT22;33900;53.640;9.942;2022-07-19T03:32:57;18.80;89.40
15099;DHT22;33900;53.640;9.942;2022-07-19T03:35:23;18.80;89.40
15099;DHT22;33900;53.640;9.942;2022-07-19T03:37:48;18.80;89.40
15099;DHT22;33900;53.640;9.942;2022-07-19T03:40:14;18.80;89.50
15099;DHT22;33900;53.640;9.942;2022-07-19T03:42:39;18.80;89.50
15099;DHT22;33900;53.640;9.942;2022-07-19T03:45:05;18.80;89.40
15099;DHT22;33900;53.640;9.942;2022-07-19T03:47:31;18.80;89.40
15099;DHT22;33900;53.640;9.942;2022-07-19T03:49:56;18.80;89.60
15099;DHT22;33900;53.640;9.942;2022-07-19T03:52:23;18.80;89.90
15099;DHT22;33900;53.640;9.942;2022-07-19T03:54:48;18.80;89.90
15099;DHT22;33900;53.640;9.942;2022-07-19T03:57:14;18.80;90.00
15099;DHT22;33900;53.640;9.942;2022-07-19T03:59:40;18.80;90.00
15099;DHT22;33900;53.640;9.942;2022-07-19T04:02:06;18.80;90.00
15099;DHT22;33900;53.640;9.942;2022-07-19T04:04:31;18.80;90.10
15099;DHT22;33900;53.640;9.942;2022-07-19T04:06:57;18.90;90.10
15099;DHT22;33900;53.640;9.942;2022-07-19T04:09:22;18.80;90.00
15099;DHT22;33900;53.640;9.942;2022-07-19T04:11:48;18.90;90.00
15099;DHT22;33900;53.640;9.942;2022-07-19T04:14:14;18.90;90.00
15099;DHT22;33900;53.640;9.942;2022-07-19T04:16:39;18.90;90.00
15099;DHT22;33900;53.640;9.942;2022-07-19T04:19:05;18.80;90.00
15099;DHT22;33900;53.640;9.942;2022-07-19T04:21:31;18.90;90.10
15099;DHT22;33900;53.640;9.942;2022-07-19T04:23:56;18.90;90.10
15099;DHT22;33900;53.640;9.942;2022-07-19T04:26:22;18.90;90.10
15099;DHT22;33900;53.640;9.942;2022-07-19T04:28:47;18.80;90.10
15099;DHT22;33900;53.640;9.942;2022-07-19T04:31:13;18.90;90.10
15099;DHT22;33900;53.640;9.942;2022-07-19T04:33:40;18.90;90.20
15099;DHT22;33900;53.640;9.942;2022-07-19T04:36:06;18.90;90.20
15099;DHT22;33900;53.640;9.942;2022-07-19T04:38:32;18.90;90.30
15099;DHT22;33900;53.640;9.942;2022-07-19T04:40:57;18.90;90.30
15099;DHT22;33900;53.640;9.942;2022-07-19T04:43:23;19.00;90.30
15099;DHT22;33900;53.640;9.942;2022-07-19T04:45:48;19.00;90.40
15099;DHT22;33900;53.640;9.942;2022-07-19T04:48:16;19.00;90.40
15099;DHT22;33900;53.640;9.942;2022-07-19T04:50:42;19.10;90.50
15099;DHT22;33900;53.640;9.942;2022-07-19T04:53:08;19.10;90.50
15099;DHT22;33900;53.640;9.942;2022-07-19T04:55:33;19.10;90.60
15099;DHT22;33900;53.640;9.942;2022-07-19T04:57:59;19.20;90.60
15099;DHT22;33900;53.640;9.942;2022-07-19T05:00:25;19.20;90.60
15099;DHT22;33900;53.640;9.942;2022-07-19T05:02:53;19.20;90.60
15099;DHT22;33900;53.640;9.942;2022-07-19T05:05:18;19.30;90.70
15099;DHT22;33900;53.640;9.942;2022-07-19T05:07:44;19.20;90.70
15099;DHT22;33900;53.640;9.942;2022-07-19T05:10:09;19.30;90.70
15099;DHT22;33900;53.640;9.942;2022-07-19T05:12:35;19.40;91.10
15099;DHT22;33900;53.640;9.942;2022-07-19T05:15:00;19.40;90.80
15099;DHT22;33900;53.640;9.942;2022-07-19T05:17:28;19.50;90.80
15099;DHT22;33900;53.640;9.942;2022-07-19T05:19:54;19.50;90.90
15099;DHT22;33900;53.640;9.942;2022-07-19T05:22:19;19.60;90.90
15099;DHT22;33900;53.640;9.942;2022-07-19T05:24:45;19.60;90.90
15099;DHT22;33900;53.640;9.942;2022-07-19T05:27:11;19.60;90.90
15099;DHT22;33900;53.640;9.942;2022-07-19T05:29:36;19.70;91.00
15099;DHT22;33900;53.640;9.942;2022-07-19T05:32:02;19.70;91.00
15099;DHT22;33900;53.640;9.942;2022-07-19T05:34:28;19.70;91.00
15099;DHT22;33900;53.640;9.942;2022-07-19T05:36:53;19.80;91.00
15099;DHT22;33900;53.640;9.942;2022-07-19T05:39:19;19.80;91.00
15099;DHT22;33900;53.640;9.942;2022-07-19T05:41:47;19.90;91.00
15099;DHT22;33900;53.640;9.942;2022-07-19T05:44:16;19.90;91.00
15099;DHT22;33900;53.640;9.942;2022-07-19T05:46:41;20.00;91.00
15099;DHT22;33900;53.640;9.942;2022-07-19T05:49:07;20.00;91.00
15099;DHT22;33900;53.640;9.942;2022-07-19T05:51:34;20.10;91.00
15099;DHT22;33900;53.640;9.942;2022-07-19T05:53:59;20.10;91.00
15099;DHT22;33900;53.640;9.942;2022-07-19T05:56:26;20.20;91.00
15099;DHT22;33900;53.640;9.942;2022-07-19T05:58:52;20.30;91.00
15099;DHT22;33900;53.640;9.942;2022-07-19T06:01:17;20.30;91.00
15099;DHT22;33900;53.640;9.942;2022-07-19T06:03:46;20.40;90.90
15099;DHT22;33900;53.640;9.942;2022-07-19T06:06:12;20.40;90.90
15099;DHT22;33900;53.640;9.942;2022-07-19T06:08:39;20.50;90.90
15099;DHT22;33900;53.640;9.942;2022-07-19T06:11:04;20.60;90.90
15099;DHT22;33900;53.640;9.942;2022-07-19T06:13:30;20.70;90.70
15099;DHT22;33900;53.640;9.942;2022-07-19T06:15:55;20.70;90.50
15099;DHT22;33900;53.640;9.942;2022-07-19T06:18:21;20.80;90.40
15099;DHT22;33900;53.640;9.942;2022-07-19T06:20:46;20.90;90.30
15099;DHT22;33900;53.640;9.942;2022-07-19T06:23:12;20.90;90.20
15099;DHT22;33900;53.640;9.942;2022-07-19T06:25:38;21.00;90.10
15099;DHT22;33900;53.640;9.942;2022-07-19T06:28:03;21.10;90.00
15099;DHT22;33900;53.640;9.942;2022-07-19T06:30:29;21.20;89.80
15099;DHT22;33900;53.640;9.942;2022-07-19T06:32:54;21.30;89.50
15099;DHT22;33900;53.640;9.942;2022-07-19T06:35:20;21.40;89.30
15099;DHT22;33900;53.640;9.942;2022-07-19T06:37:46;21.40;89.00
15099;DHT22;33900;53.640;9.942;2022-07-19T06:40:11;21.50;88.80
15099;DHT22;33900;53.640;9.942;2022-07-19T06:42:37;21.60;88.60
15099;DHT22;33900;53.640;9.942;2022-07-19T06:45:05;21.70;88.30
15099;DHT22;33900;53.640;9.942;2022-07-19T06:47:31;21.70;88.10
15099;DHT22;33900;53.640;9.942;2022-07-19T06:49:58;21.80;87.80
15099;DHT22;33900;53.640;9.942;2022-07-19T06:52:23;21.90;87.70
15099;DHT22;33900;53.640;9.942;2022-07-19T06:54:49;22.00;87.50
15099;DHT22;33900;53.640;9.942;2022-07-19T06:57:15;22.00;87.20
15099;DHT22;33900;53.640;9.942;2022-07-19T06:59:40;22.10;86.90
15099;DHT22;33900;53.640;9.942;2022-07-19T07:02:06;22.20;86.60
15099;DHT22;33900;53.640;9.942;2022-07-19T07:04:32;22.30;86.30
15099;DHT22;33900;53.640;9.942;2022-07-19T07:06:58;22.40;86.00
15099;DHT22;33900;53.640;9.942;2022-07-19T07:09:23;22.60;85.40
15099;DHT22;33900;53.640;9.942;2022-07-19T07:11:49;22.60;84.50
15099;DHT22;33900;53.640;9.942;2022-07-19T07:14:14;22.70;84.00
15099;DHT22;33900;53.640;9.942;2022-07-19T07:16:40;22.80;83.90
15099;DHT22;33900;53.640;9.942;2022-07-19T07:19:06;22.90;83.80
15099;DHT22;33900;53.640;9.942;2022-07-19T07:21:32;23.00;83.70
15099;DHT22;33900;53.640;9.942;2022-07-19T07:24:00;23.10;83.60
15099;DHT22;33900;53.640;9.942;2022-07-19T07:26:27;23.10;83.50
15099;DHT22;33900;53.640;9.942;2022-07-19T07:28:52;23.20;83.40
15099;DHT22;33900;53.640;9.942;2022-07-19T07:31:18;23.20;83.10
15099;DHT22;33900;53.640;9.942;2022-07-19T07:33:43;23.30;83.00
15099;DHT22;33900;53.640;9.942;2022-07-19T07:36:08;23.30;82.60
15099;DHT22;33900;53.640;9.942;2022-07-19T07:38:34;23.50;81.70
15099;DHT22;33900;53.640;9.942;2022-07-19T07:41:00;23.60;81.50
15099;DHT22;33900;53.640;9.942;2022-07-19T07:43:25;23.70;81.20
15099;DHT22;33900;53.640;9.942;2022-07-19T07:45:51;23.90;80.90
15099;DHT22;33900;53.640;9.942;2022-07-19T07:48:17;24.00;80.60
15099;DHT22;33900;53.640;9.942;2022-07-19T07:50:42;24.10;80.30
15099;DHT22;33900;53.640;9.942;2022-07-19T07:53:10;24.20;80.10
15099;DHT22;33900;53.640;9.942;2022-07-19T07:55:35;24.30;78.20
15099;DHT22;33900;53.640;9.942;2022-07-19T07:58:04;24.30;78.60
15099;DHT22;33900;53.640;9.942;2022-07-19T08:00:30;24.40;76.70
15099;DHT22;33900;53.640;9.942;2022-07-19T08:02:55;24.60;74.90
15099;DHT22;33900;53.640;9.942;2022-07-19T08:05:21;24.70;74.90
15099;DHT22;33900;53.640;9.942;2022-07-19T08:07:47;24.80;74.00
15099;DHT22;33900;53.640;9.942;2022-07-19T08:10:13;24.90;74.40
15099;DHT22;33900;53.640;9.942;2022-07-19T08:12:41;25.10;74.50
15099;DHT22;33900;53.640;9.942;2022-07-19T08:15:07;25.10;75.40
15099;DHT22;33900;53.640;9.942;2022-07-19T08:17:33;25.20;73.60
15099;DHT22;33900;53.640;9.942;2022-07-19T08:19:59;25.30;74.30
15099;DHT22;33900;53.640;9.942;2022-07-19T08:22:25;25.30;73.70
15099;DHT22;33900;53.640;9.942;2022-07-19T08:24:50;25.40;70.30
15099;DHT22;33900;53.640;9.942;2022-07-19T08:27:16;25.50;71.10
15099;DHT22;33900;53.640;9.942;2022-07-19T08:29:41;25.50;68.70
15099;DHT22;33900;53.640;9.942;2022-07-19T08:32:07;25.70;68.10
15099;DHT22;33900;53.640;9.942;2022-07-19T08:34:32;25.80;67.50
15099;DHT22;33900;53.640;9.942;2022-07-19T08:36:58;25.90;66.50
15099;DHT22;33900;53.640;9.942;2022-07-19T08:39:25;26.00;65.60
15099;DHT22;33900;53.640;9.942;2022-07-19T08:41:51;26.10;64.00
15099;DHT22;33900;53.640;9.942;2022-07-19T08:44:16;26.20;65.20
15099;DHT22;33900;53.640;9.942;2022-07-19T08:46:42;26.20;62.90
15099;DHT22;33900;53.640;9.942;2022-07-19T08:49:09;26.40;61.40
15099;DHT22;33900;53.640;9.942;2022-07-19T08:51:34;26.50;60.50
15099;DHT22;33900;53.640;9.942;2022-07-19T08:54:00;26.60;60.70
15099;DHT22;33900;53.640;9.942;2022-07-19T08:56:26;26.80;57.30
15099;DHT22;33900;53.640;9.942;2022-07-19T08:59:11;26.90;58.00
15099;DHT22;33900;53.640;9.942;2022-07-19T09:01:37;27.00;58.60
15099;DHT22;33900;53.640;9.942;2022-07-19T09:04:10;27.10;58.80
15099;DHT22;33900;53.640;9.942;2022-07-19T09:09:08;27.30;57.90
15099;DHT22;33900;53.640;9.942;2022-07-19T09:11:34;27.40;58.10
15099;DHT22;33900;53.640;9.942;2022-07-19T09:14:04;27.40;56.40
15099;DHT22;33900;53.640;9.942;2022-07-19T09:16:47;27.50;55.70
15099;DHT22;33900;53.640;9.942;2022-07-19T09:19:13;27.60;56.00
15099;DHT22;33900;53.640;9.942;2022-07-19T09:21:50;27.80;56.00
15099;DHT22;33900;53.640;9.942;2022-07-19T09:24:15;27.90;55.60
15099;DHT22;33900;53.640;9.942;2022-07-19T09:26:53;28.00;55.70
15099;DHT22;33900;53.640;9.942;2022-07-19T09:29:21;28.10;55.30
15099;DHT22;33900;53.640;9.942;2022-07-19T09:32:03;28.20;55.80
15099;DHT22;33900;53.640;9.942;2022-07-19T09:34:29;28.20;52.60
15099;DHT22;33900;53.640;9.942;2022-07-19T09:37:08;28.20;53.50
15099;DHT22;33900;53.640;9.942;2022-07-19T09:39:34;28.20;54.00
15099;DHT22;33900;53.640;9.942;2022-07-19T09:41:59;28.10;54.70
15099;DHT22;33900;53.640;9.942;2022-07-19T09:44:28;28.10;54.50
15099;DHT22;33900;53.640;9.942;2022-07-19T09:46:53;28.10;54.20
15099;DHT22;33900;53.640;9.942;2022-07-19T09:49:19;28.20;54.30
15099;DHT22;33900;53.640;9.942;2022-07-19T09:51:46;28.20;54.80
15099;DHT22;33900;53.640;9.942;2022-07-19T09:54:15;28.10;54.10
15099;DHT22;33900;53.640;9.942;2022-07-19T09:56:42;28.00;53.30
15099;DHT22;33900;53.640;9.942;2022-07-19T09:59:08;28.00;52.60
15099;DHT22;33900;53.640;9.942;2022-07-19T10:01:34;28.00;53.10
15099;DHT22;33900;53.640;9.942;2022-07-19T10:04:02;28.00;53.50
15099;DHT22;33900;53.640;9.942;2022-07-19T10:06:27;27.90;53.80
15099;DHT22;33900;53.640;9.942;2022-07-19T10:08:53;27.90;54.20
15099;DHT22;33900;53.640;9.942;2022-07-19T10:11:20;27.90;53.40
15099;DHT22;33900;53.640;9.942;2022-07-19T10:13:46;27.90;54.20
15099;DHT22;33900;53.640;9.942;2022-07-19T10:16:13;27.80;53.90
15099;DHT22;33900;53.640;9.942;2022-07-19T10:18:44;27.80;53.20
15099;DHT22;33900;53.640;9.942;2022-07-19T10:21:14;27.90;51.80
15099;DHT22;33900;53.640;9.942;2022-07-19T10:23:39;27.90;52.00
15099;DHT22;33900;53.640;9.942;2022-07-19T10:26:32;27.80;52.20
15099;DHT22;33900;53.640;9.942;2022-07-19T10:29:08;27.80;51.60
15099;DHT22;33900;53.640;9.942;2022-07-19T10:31:34;27.90;52.40
15099;DHT22;33900;53.640;9.942;2022-07-19T10:34:02;27.90;52.90
15099;DHT22;33900;53.640;9.942;2022-07-19T10:42:03;28.00;51.80
15099;DHT22;33900;53.640;9.942;2022-07-19T10:44:29;28.00;52.50
15099;DHT22;33900;53.640;9.942;2022-07-19T10:46:54;28.00;52.60
15099;DHT22;33900;53.640;9.942;2022-07-19T10:55:17;27.90;52.60
15099;DHT22;33900;53.640;9.942;2022-07-19T10:57:37;27.90;52.50
15099;DHT22;33900;53.640;9.942;2022-07-19T11:00:19;27.90;53.30
15099;DHT22;33900;53.640;9.942;2022-07-19T11:02:45;27.90;53.30
15099;DHT22;33900;53.640;9.942;2022-07-19T11:05:45;27.90;53.70
15099;DHT22;33900;53.640;9.942;2022-07-19T11:08:03;27.90;53.30
15099;DHT22;33900;53.640;9.942;2022-07-19T11:10:29;27.90;52.10
15099;DHT22;33900;53.640;9.942;2022-07-19T11:12:56;27.90;51.30
15099;DHT22;33900;53.640;9.942;2022-07-19T11:15:22;28.00;51.80
15099;DHT22;33900;53.640;9.942;2022-07-19T11:17:52;28.00;50.70
15099;DHT22;33900;53.640;9.942;2022-07-19T11:20:18;28.00;50.50
15099;DHT22;33900;53.640;9.942;2022-07-19T11:22:45;28.00;50.60
15099;DHT22;33900;53.640;9.942;2022-07-19T11:25:11;28.10;51.60
15099;DHT22;33900;53.640;9.942;2022-07-19T11:27:41;28.00;52.00
15099;DHT22;33900;53.640;9.942;2022-07-19T11:30:07;28.10;52.70
15099;DHT22;33900;53.640;9.942;2022-07-19T11:32:33;28.10;49.80
15099;DHT22;33900;53.640;9.942;2022-07-19T11:35:00;28.10;51.20
15099;DHT22;33900;53.640;9.942;2022-07-19T11:37:27;28.10;47.80
15099;DHT22;33900;53.640;9.942;2022-07-19T11:39:53;28.20;48.40
15099;DHT22;33900;53.640;9.942;2022-07-19T11:42:29;28.30;49.10
15099;DHT22;33900;53.640;9.942;2022-07-19T11:44:55;28.30;49.20
15099;DHT22;33900;53.640;9.942;2022-07-19T11:47:20;28.40;50.20
15099;DHT22;33900;53.640;9.942;2022-07-19T11:49:46;28.40;49.80
15099;DHT22;33900;53.640;9.942;2022-07-19T11:52:12;28.50;48.30
15099;DHT22;33900;53.640;9.942;2022-07-19T11:54:37;28.60;49.60
15099;DHT22;33900;53.640;9.942;2022-07-19T11:57:24;28.70;48.40
15099;DHT22;33900;53.640;9.942;2022-07-19T11:59:50;28.80;46.70
15099;DHT22;33900;53.640;9.942;2022-07-19T12:02:15;28.90;44.90
15099;DHT22;33900;53.640;9.942;2022-07-19T12:04:41;29.00;44.90
15099;DHT22;33900;53.640;9.942;2022-07-19T12:07:07;29.10;45.10
15099;DHT22;33900;53.640;9.942;2022-07-19T12:09:32;29.20;44.70
15099;DHT22;33900;53.640;9.942;2022-07-19T12:11:59;29.30;44.70
15099;DHT22;33900;53.640;9.942;2022-07-19T12:14:26;29.50;43.60
15099;DHT22;33900;53.640;9.942;2022-07-19T12:19:36;29.80;44.70
15099;DHT22;33900;53.640;9.942;2022-07-19T12:22:02;29.90;43.60
15099;DHT22;33900;53.640;9.942;2022-07-19T12:24:29;30.00;43.00
15099;DHT22;33900;53.640;9.942;2022-07-19T12:26:58;30.10;42.90
15099;DHT22;33900;53.640;9.942;2022-07-19T12:29:25;30.20;42.30
15099;DHT22;33900;53.640;9.942;2022-07-19T12:31:52;30.30;42.00
15099;DHT22;33900;53.640;9.942;2022-07-19T12:34:18;30.40;42.50
15099;DHT22;33900;53.640;9.942;2022-07-19T12:36:46;30.50;40.80
15099;DHT22;33900;53.640;9.942;2022-07-19T12:39:28;30.60;40.40
15099;DHT22;33900;53.640;9.942;2022-07-19T12:44:22;30.80;39.40
15099;DHT22;33900;53.640;9.942;2022-07-19T12:46:48;30.80;38.60
15099;DHT22;33900;53.640;9.942;2022-07-19T12:49:14;30.90;38.30
15099;DHT22;33900;53.640;9.942;2022-07-19T12:51:39;31.00;39.70
15099;DHT22;33900;53.640;9.942;2022-07-19T12:54:10;31.10;39.50
15099;DHT22;33900;53.640;9.942;2022-07-19T12:56:36;31.10;38.60
15099;DHT22;33900;53.640;9.942;2022-07-19T12:59:02;31.20;38.80
15099;DHT22;33900;53.640;9.942;2022-07-19T13:01:46;31.30;39.00
15099;DHT22;33900;53.640;9.942;2022-07-19T13:04:12;31.40;39.40
15099;DHT22;33900;53.640;9.942;2022-07-19T13:06:37;31.50;37.60
15099;DHT22;33900;53.640;9.942;2022-07-19T13:09:03;31.50;37.10
15099;DHT22;33900;53.640;9.942;2022-07-19T13:11:28;31.60;36.90
15099;DHT22;33900;53.640;9.942;2022-07-19T13:13:54;31.60;37.30
15099;DHT22;33900;53.640;9.942;2022-07-19T13:16:20;31.70;37.70
15099;DHT22;33900;53.640;9.942;2022-07-19T13:18:47;31.70;37.30
15099;DHT22;33900;53.640;9.942;2022-07-19T13:21:15;31.80;36.90
15099;DHT22;33900;53.640;9.942;2022-07-19T13:23:41;31.80;37.90
15099;DHT22;33900;53.640;9.942;2022-07-19T13:26:07;31.90;37.60
15099;DHT22;33900;53.640;9.942;2022-07-19T13:28:32;31.90;37.40
15099;DHT22;33900;53.640;9.942;2022-07-19T13:31:00;32.00;36.60
15099;DHT22;33900;53.640;9.942;2022-07-19T13:33:26;32.00;36.60
15099;DHT22;33900;53.640;9.942;2022-07-19T13:35:51;32.10;37.90
15099;DHT22;33900;53.640;9.942;2022-07-19T13:38:17;32.10;36.10
15099;DHT22;33900;53.640;9.942;2022-07-19T13:40:42;32.20;35.80
15099;DHT22;33900;53.640;9.942;2022-07-19T13:43:08;32.20;36.60
15099;DHT22;33900;53.640;9.942;2022-07-19T13:45:33;32.20;36.10
15099;DHT22;33900;53.640;9.942;2022-07-19T13:47:59;32.30;35.60
15099;DHT22;33900;53.640;9.942;2022-07-19T13:50:24;32.30;35.40
15099;DHT22;33900;53.640;9.942;2022-07-19T13:52:51;32.30;35.70
15099;DHT22;33900;53.640;9.942;2022-07-19T13:55:17;32.40;35.10
15099;DHT22;33900;53.640;9.942;2022-07-19T13:57:42;32.40;35.20
15099;DHT22;33900;53.640;9.942;2022-07-19T14:00:08;32.40;34.50
15099;DHT22;33900;53.640;9.942;2022-07-19T14:02:38;32.40;34.80
15099;DHT22;33900;53.640;9.942;2022-07-19T14:07:54;32.40;33.70
15099;DHT22;33900;53.640;9.942;2022-07-19T14:10:20;32.50;34.00
15099;DHT22;33900;53.640;9.942;2022-07-19T14:12:45;32.50;34.20
15099;DHT22;33900;53.640;9.942;2022-07-19T14:15:11;32.60;34.40
15099;DHT22;33900;53.640;9.942;2022-07-19T14:17:37;32.60;34.70
15099;DHT22;33900;53.640;9.942;2022-07-19T14:20:03;32.60;35.20
15099;DHT22;33900;53.640;9.942;2022-07-19T14:22:31;32.70;34.40
15099;DHT22;33900;53.640;9.942;2022-07-19T14:24:57;32.80;33.60
15099;DHT22;33900;53.640;9.942;2022-07-19T14:27:25;32.80;34.70
15099;DHT22;33900;53.640;9.942;2022-07-19T14:29:50;32.80;35.60
15099;DHT22;33900;53.640;9.942;2022-07-19T14:32:16;32.80;35.30
15099;DHT22;33900;53.640;9.942;2022-07-19T14:34:41;32.80;34.70
15099;DHT22;33900;53.640;9.942;2022-07-19T14:37:07;32.80;34.20
15099;DHT22;33900;53.640;9.942;2022-07-19T14:39:32;32.80;34.00
15099;DHT22;33900;53.640;9.942;2022-07-19T14:41:58;32.80;34.20
15099;DHT22;33900;53.640;9.942;2022-07-19T14:44:26;32.80;34.10
15099;DHT22;33900;53.640;9.942;2022-07-19T14:46:52;32.80;34.10
15099;DHT22;33900;53.640;9.942;2022-07-19T14:49:18;32.80;33.70
15099;DHT22;33900;53.640;9.942;2022-07-19T14:51:46;32.80;33.00
15099;DHT22;33900;53.640;9.942;2022-07-19T14:54:11;32.90;33.80
15099;DHT22;33900;53.640;9.942;2022-07-19T14:56:37;32.90;34.20
15099;DHT22;33900;53.640;9.942;2022-07-19T14:59:03;32.80;33.80
15099;DHT22;33900;53.640;9.942;2022-07-19T15:01:30;32.80;34.00
15099;DHT22;33900;53.640;9.942;2022-07-19T15:03:58;32.80;34.40
15099;DHT22;33900;53.640;9.942;2022-07-19T15:06:29;32.80;34.90
15099;DHT22;33900;53.640;9.942;2022-07-19T15:08:55;32.80;35.10
15099;DHT22;33900;53.640;9.942;2022-07-19T15:11:20;32.80;35.00
15099;DHT22;33900;53.640;9.942;2022-07-19T15:13:46;32.80;34.50
15099;DHT22;33900;53.640;9.942;2022-07-19T15:16:12;32.70;34.60
15099;DHT22;33900;53.640;9.942;2022-07-19T15:18:37;32.70;34.60
15099;DHT22;33900;53.640;9.942;2022-07-19T15:21:06;32.60;34.70
15099;DHT22;33900;53.640;9.942;2022-07-19T15:23:32;32.60;34.70
15099;DHT22;33900;53.640;9.942;2022-07-19T15:25:59;32.60;33.70
15099;DHT22;33900;53.640;9.942;2022-07-19T15:28:25;32.60;33.20
15099;DHT22;33900;53.640;9.942;2022-07-19T15:30:50;32.60;33.50
15099;DHT22;33900;53.640;9.942;2022-07-19T15:33:16;32.60;33.30
15099;DHT22;33900;53.640;9.942;2022-07-19T15:35:41;32.60;33.70
15099;DHT22;33900;53.640;9.942;2022-07-19T15:38:07;32.60;33.40
15099;DHT22;33900;53.640;9.942;2022-07-19T15:40:32;32.60;33.90
15099;DHT22;33900;53.640;9.942;2022-07-19T15:42:58;32.50;33.90
15099;DHT22;33900;53.640;9.942;2022-07-19T15:45:24;32.50;34.20
15099;DHT22;33900;53.640;9.942;2022-07-19T15:47:49;32.50;33.20